Time;durP1;ratioP1;P1;durP2;ratioP2;P2;SDS_P1;SDS_P2;PMS_P1;PMS_P2;Temp;Humidity;BMP_temperature;BMP_pressure;BME280_temperature;BME280_humidity;BME280_pressure;Samples;Min_cycle;Max_cycle;Signal;HPM_P1;HPM_P2
2021/11/24 00:00:30;;;;;;;15.98;11.93;;;;;;;-4.89;100.00;93631.06;2114620;28;20429;-86
2021/11/24 00:01:31;;;;;;;17.20;11.90;;;;;;;-4.94;100.00;93625.25;2114941;28;20057;-84
2021/11/24 00:02:32;;;;;;;18.38;11.38;;;;;;;-5.03;100.00;93637.50;2112962;28;20454;-85
2021/11/24 00:03:36;;;;;;;18.58;11.90;;;;;;;-5.03;100.00;93627.84;2106739;28;20469;-84
2021/11/24 00:04:37;;;;;;;16.75;11.88;;;;;;;-4.87;100.00;93636.75;2115258;28;20062;-85
2021/11/24 00:05:41;;;;;;;17.17;11.73;;;;;;;-4.86;100.00;93627.88;2115784;28;20416;-84
2021/11/24 00:06:44;;;;;;;18.88;12.23;;;;;;;-4.79;100.00;93634.44;2117359;27;20448;-84
2021/11/24 00:07:48;;;;;;;18.45;11.80;;;;;;;-4.71;100.00;93626.63;2103127;28;20529;-85
2021/11/24 00:08:53;;;;;;;17.88;12.80;;;;;;;-4.97;100.00;93621.41;2103080;28;20454;-87
2021/11/24 00:10:01;;;;;;;16.45;11.82;;;;;;;-4.98;100.00;93625.09;2102126;28;20474;-83
2021/11/24 00:11:02;;;;;;;18.38;11.88;;;;;;;-4.87;100.00;93620.34;2101672;28;20496;-85
2021/11/24 00:12:04;;;;;;;16.95;11.60;;;;;;;-4.86;100.00;93627.09;2092915;28;20538;-85
2021/11/24 00:13:05;;;;;;;17.45;12.20;;;;;;;-4.89;100.00;93619.88;2106667;28;20450;-83
2021/11/24 00:14:06;;;;;;;20.38;13.10;;;;;;;-4.84;100.00;93619.72;2114055;28;20486;-84
2021/11/24 00:15:09;;;;;;;18.63;12.77;;;;;;;-4.76;100.00;93623.41;2094766;28;20442;-87
2021/11/24 00:16:11;;;;;;;18.35;12.95;;;;;;;-4.67;100.00;93626.78;2090221;28;20025;-85
2021/11/24 00:17:12;;;;;;;21.08;13.27;;;;;;;-4.70;100.00;93625.56;2096449;28;20450;-85
2021/11/24 00:18:18;;;;;;;19.90;12.85;;;;;;;-4.76;100.00;93623.41;2098380;28;20043;-85
2021/11/24 00:19:18;;;;;;;18.90;12.55;;;;;;;-4.65;100.00;93622.03;2108194;28;20473;-84
2021/11/24 00:20:20;;;;;;;20.80;12.80;;;;;;;-4.68;100.00;93622.66;2114150;28;20453;-85
2021/11/24 00:21:21;;;;;;;18.88;12.35;;;;;;;-4.68;100.00;93618.19;2106733;28;20066;-83
2021/11/24 00:22:21;;;;;;;18.20;12.88;;;;;;;-4.59;100.00;93621.56;2098177;28;20732;-85
2021/11/24 00:23:22;;;;;;;18.30;12.00;;;;;;;-4.34;100.00;93616.66;2095975;28;20025;-85
2021/11/24 00:24:24;;;;;;;20.38;13.70;;;;;;;-4.31;100.00;93608.19;2098171;28;20153;-85
2021/11/24 00:25:25;;;;;;;23.52;13.20;;;;;;;-4.39;100.00;93612.34;2106638;28;20073;-84
2021/11/24 00:26:26;;;;;;;18.60;13.73;;;;;;;-4.42;100.00;93604.38;2113682;27;20450;-84
2021/11/24 00:27:27;;;;;;;20.00;13.10;;;;;;;-4.39;100.00;93608.97;2105662;28;20913;-86
2021/11/24 00:28:37;;;;;;;22.23;14.98;;;;;;;-4.47;100.00;93607.16;2106563;28;20027;-87
2021/11/24 00:29:38;;;;;;;23.05;14.23;;;;;;;-4.38;100.00;93613.13;2112861;28;20011;-85
2021/11/24 00:30:39;;;;;;;26.65;15.25;;;;;;;-4.40;100.00;93610.03;2096346;28;20103;-84
2021/11/24 00:31:42;;;;;;;22.40;14.45;;;;;;;-4.42;100.00;93607.75;2106213;28;20982;-82
2021/11/24 00:32:46;;;;;;;25.27;15.45;;;;;;;-4.37;100.00;93606.81;2109926;27;20538;-86
2021/11/24 00:33:48;;;;;;;25.23;15.43;;;;;;;-4.31;100.00;93602.97;2100228;28;20104;-85
2021/11/24 00:34:49;;;;;;;29.08;15.82;;;;;;;-4.15;100.00;93598.78;2098338;28;20020;-85
2021/11/24 00:35:53;;;;;;;30.75;17.00;;;;;;;-4.15;100.00;93609.22;2106594;28;20020;-87
2021/11/24 00:36:54;;;;;;;35.38;16.83;;;;;;;-4.11;100.00;93602.31;2095826;28;20017;-86
2021/11/24 00:37:55;;;;;;;33.70;17.27;;;;;;;-4.08;100.00;93603.53;2101371;28;20484;-85
2021/11/24 00:38:56;;;;;;;31.90;18.05;;;;;;;-4.07;100.00;93603.22;2099517;28;20028;-85
2021/11/24 00:39:58;;;;;;;42.90;18.67;;;;;;;-4.33;100.00;93605.13;2098003;28;20415;-85
2021/11/24 00:40:59;;;;;;;32.58;16.92;;;;;;;-4.33;100.00;93602.53;2099090;28;20013;-86
2021/11/24 00:41:59;;;;;;;34.13;16.90;;;;;;;-4.40;100.00;93612.66;2087098;28;20492;-83
2021/11/24 00:43:00;;;;;;;32.03;17.15;;;;;;;-4.34;100.00;93608.81;2105351;28;20396;-85
2021/11/24 00:44:01;;;;;;;33.00;17.70;;;;;;;-4.20;100.00;93606.78;2100135;28;20020;-85
2021/11/24 00:45:10;;;;;;;40.00;18.45;;;;;;;-4.25;100.00;93599.13;2098546;28;20511;-87
2021/11/24 00:46:11;;;;;;;31.58;18.00;;;;;;;-4.24;100.00;93599.91;2105868;28;20023;-83
2021/11/24 00:47:12;;;;;;;32.88;17.08;;;;;;;-4.09;100.00;93599.38;2101506;28;20357;-86
2021/11/24 00:48:13;;;;;;;32.75;15.93;;;;;;;-4.08;100.00;93599.09;2106559;28;20119;-85
2021/11/24 00:49:46;;;;;;;29.98;16.38;;;;;;;-4.15;100.00;93593.56;2105068;28;20458;-88
2021/11/24 00:50:48;;;;;;;24.92;15.30;;;;;;;-4.10;100.00;93597.84;2105742;28;20023;-86
2021/11/24 00:51:50;;;;;;;37.25;15.65;;;;;;;-4.11;100.00;93588.50;2106575;28;20433;-83
2021/11/24 00:52:52;;;;;;;24.73;15.38;;;;;;;-4.13;100.00;93601.09;2106771;28;20093;-84
2021/11/24 00:53:52;;;;;;;30.88;16.65;;;;;;;-4.15;100.00;93598.03;2098840;28;20543;-84
2021/11/24 00:54:53;;;;;;;34.33;16.75;;;;;;;-4.14;100.00;93597.72;2104107;28;20019;-85
2021/11/24 00:55:55;;;;;;;32.28;17.63;;;;;;;-4.18;100.00;93596.03;2107051;28;20927;-84
2021/11/24 00:56:56;;;;;;;37.30;16.00;;;;;;;-4.26;100.00;93597.56;2108997;27;20454;-83
2021/11/24 00:57:57;;;;;;;37.03;17.52;;;;;;;-4.21;100.00;93594.81;2118257;27;20445;-83
2021/11/24 00:59:00;;;;;;;70.15;17.42;;;;;;;-4.24;100.00;93595.44;2114772;28;20026;-86
2021/11/24 01:00:01;;;;;;;58.65;15.75;;;;;;;-4.21;100.00;93591.44;2115515;28;20020;-84
2021/11/24 01:01:02;;;;;;;35.05;16.35;;;;;;;-4.29;100.00;93590.38;2114810;28;20452;-84
2021/11/24 01:02:03;;;;;;;60.38;18.88;;;;;;;-4.32;100.00;93599.59;2096228;28;20453;-84
2021/11/24 01:03:04;;;;;;;53.13;16.88;;;;;;;-4.32;100.00;93596.97;2097558;28;20441;-85
2021/11/24 01:04:05;;;;;;;48.17;16.58;;;;;;;-4.26;100.00;93599.41;2114933;27;20896;-84
2021/11/24 01:05:06;;;;;;;102.22;17.77;;;;;;;-4.21;100.00;93592.22;2106204;28;20024;-86
2021/11/24 01:06:08;;;;;;;70.35;17.45;;;;;;;-4.25;100.00;93593.16;2098084;28;20473;-83
2021/11/24 01:07:09;;;;;;;37.10;17.55;;;;;;;-4.25;100.00;93591.31;2092314;28;20455;-85
2021/11/24 01:08:10;;;;;;;111.35;17.75;;;;;;;-4.17;100.00;93594.94;2099090;28;20451;-84
2021/11/24 01:09:11;;;;;;;107.22;18.10;;;;;;;-4.20;100.00;93590.38;2106583;28;20121;-84
2021/11/24 01:10:33;;;;;;;63.30;17.92;;;;;;;-4.17;100.00;93585.31;2100000;28;20781;-86
2021/11/24 01:11:35;;;;;;;54.28;16.75;;;;;;;-4.19;100.00;93584.81;2105524;28;20537;-85
2021/11/24 01:12:36;;;;;;;54.20;17.05;;;;;;;-4.12;100.00;93594.81;2105062;28;20016;-85
2021/11/24 01:13:39;;;;;;;34.20;16.98;;;;;;;-4.00;100.00;93589.69;2096213;28;20589;-85
2021/11/24 01:14:42;;;;;;;87.68;18.40;;;;;;;-3.88;100.00;93591.66;2098216;28;20012;-83
2021/11/24 01:15:45;;;;;;;82.60;17.83;;;;;;;-3.90;100.00;93584.13;2097817;28;20462;-85
2021/11/24 01:16:46;;;;;;;47.35;16.25;;;;;;;-3.82;100.00;93577.31;2103256;28;20450;-85
2021/11/24 01:17:48;;;;;;;77.00;18.30;;;;;;;-3.86;100.00;93584.28;2097373;28;20438;-84
2021/11/24 01:18:50;;;;;;;77.07;18.60;;;;;;;-3.90;100.00;93588.59;2106452;28;20445;-85
2021/11/24 01:19:51;;;;;;;56.35;18.38;;;;;;;-3.85;100.00;93591.03;2106280;28;20011;-86
2021/11/24 01:20:53;;;;;;;124.78;18.58;;;;;;;-3.85;100.00;93583.19;2099566;28;20024;-85
2021/11/24 01:21:54;;;;;;;56.55;17.17;;;;;;;-3.89;100.00;93592.72;2095382;28;20365;-85
2021/11/24 01:22:55;;;;;;;135.52;21.33;;;;;;;-3.95;100.00;93586.91;2104937;28;20450;-85
2021/11/24 01:23:56;;;;;;;69.07;18.17;;;;;;;-3.91;100.00;93593.03;2110748;28;20019;-87
2021/11/24 01:24:57;;;;;;;59.83;16.27;;;;;;;-3.86;100.00;93595.50;2112418;28;20066;-85
2021/11/24 01:25:59;;;;;;;90.68;17.05;;;;;;;-3.85;100.00;93602.25;2097469;28;20028;-87
2021/11/24 01:27:05;;;;;;;66.55;16.55;;;;;;;-3.92;100.00;93596.72;2098111;28;20028;-88
2021/11/24 01:28:07;;;;;;;62.70;17.75;;;;;;;-3.92;100.00;93604.56;2104801;28;20101;-84
2021/11/24 01:29:09;;;;;;;65.53;18.63;;;;;;;-3.86;100.00;93594.72;2106224;28;20054;-86
2021/11/24 01:30:12;;;;;;;73.43;17.33;;;;;;;-3.88;100.00;93591.66;2097833;28;20115;-84
2021/11/24 01:31:13;;;;;;;69.78;18.60;;;;;;;-3.87;100.00;93596.53;2100852;28;20035;-87
2021/11/24 01:32:14;;;;;;;68.50;17.45;;;;;;;-3.84;100.00;93590.72;2101928;28;20578;-86
2021/11/24 01:33:17;;;;;;;114.93;17.30;;;;;;;-3.74;100.00;93596.66;2096361;28;20109;-84
2021/11/24 01:34:19;;;;;;;132.10;18.42;;;;;;;-3.74;100.00;93586.22;2090023;28;20389;-83
2021/11/24 01:35:20;;;;;;;50.83;16.50;;;;;;;-3.61;100.00;93590.44;2098023;28;20016;-84
2021/11/24 01:36:21;;;;;;;94.70;17.25;;;;;;;-3.73;100.00;93588.53;2097592;28;20029;-86
2021/11/24 01:37:22;;;;;;;92.28;16.15;;;;;;;-3.65;100.00;93582.47;2097867;28;20029;-85
2021/11/24 01:38:24;;;;;;;36.75;16.67;;;;;;;-3.63;100.00;93582.94;2101713;28;20500;-85
2021/11/24 01:39:27;;;;;;;73.78;17.98;;;;;;;-3.76;100.00;93586.53;2094329;28;20047;-86
2021/11/24 01:40:29;;;;;;;56.80;17.13;;;;;;;-3.78;100.00;93587.91;2101952;28;20454;-85
2021/11/24 01:41:31;;;;;;;40.70;16.83;;;;;;;-3.69;100.00;93584.19;2098146;28;20020;-84
2021/11/24 01:42:33;;;;;;;38.65;17.52;;;;;;;-3.72;100.00;93584.06;2105762;28;20023;-85
2021/11/24 01:43:36;;;;;;;40.80;17.33;;;;;;;-3.69;100.00;93586.03;2105145;28;20024;-84
2021/11/24 01:44:37;;;;;;;52.95;18.05;;;;;;;-3.85;100.00;93591.78;2097782;28;20079;-85
2021/11/24 01:45:40;;;;;;;36.22;17.38;;;;;;;-3.74;100.00;93586.22;2085591;28;20797;-86
2021/11/24 01:46:41;;;;;;;38.63;18.42;;;;;;;-3.76;100.00;93585.78;2095100;28;20455;-84
2021/11/24 01:47:43;;;;;;;52.33;17.67;;;;;;;-3.81;100.00;93587.47;2114298;28;20035;-85
2021/11/24 01:48:44;;;;;;;87.88;17.10;;;;;;;-3.86;100.00;93585.03;2100122;28;20447;-84
2021/11/24 01:49:45;;;;;;;58.25;17.45;;;;;;;-3.79;100.00;93584.53;2098988;28;20111;-84
2021/11/24 01:50:47;;;;;;;78.63;18.05;;;;;;;-3.80;100.00;93583.78;2097410;28;20409;-84
2021/11/24 01:51:52;;;;;;;38.90;16.05;;;;;;;-3.80;100.00;93586.38;2095675;28;20025;-88
2021/11/24 01:52:53;;;;;;;47.72;16.75;;;;;;;-3.46;100.00;93583.94;2096242;28;20886;-85
2021/11/24 01:53:54;;;;;;;34.53;16.52;;;;;;;-3.40;100.00;93590.50;2093437;28;20021;-85
2021/11/24 01:54:55;;;;;;;71.45;17.58;;;;;;;-3.38;100.00;93589.13;2089443;28;20107;-86
2021/11/24 01:56:00;;;;;;;43.33;16.48;;;;;;;-3.42;100.00;93588.22;2089226;28;20416;-85
2021/11/24 01:57:02;;;;;;;74.95;17.48;;;;;;;-3.52;100.00;93575.50;2090383;28;20458;-84
2021/11/24 01:58:03;;;;;;;59.35;17.33;;;;;;;-3.59;100.00;93583.09;2096739;28;20091;-86
2021/11/24 01:59:04;;;;;;;49.50;16.40;;;;;;;-3.61;100.00;93586.00;2097702;28;20062;-87
2021/11/24 02:00:07;;;;;;;30.20;17.73;;;;;;;-3.69;100.00;93580.81;2095026;28;20021;-85
2021/11/24 02:01:08;;;;;;;48.10;16.83;;;;;;;-3.74;100.00;93581.00;2103762;28;20038;-84
2021/11/24 02:02:11;;;;;;;48.17;16.77;;;;;;;-3.74;100.00;93578.38;2116491;27;20019;-84
2021/11/24 02:03:16;;;;;;;58.97;18.17;;;;;;;-3.91;100.00;93587.03;2104492;28;20024;-86
2021/11/24 02:04:17;;;;;;;65.75;18.48;;;;;;;-4.07;100.00;93584.94;2090484;28;20017;-84
2021/11/24 02:05:20;;;;;;;55.83;17.88;;;;;;;-4.07;100.00;93584.94;2089602;28;20086;-87
2021/11/24 02:06:20;;;;;;;31.17;17.08;;;;;;;-3.91;100.00;93579.22;2106084;28;20047;-85
2021/11/24 02:07:21;;;;;;;29.58;17.45;;;;;;;-3.83;100.00;93581.03;2109827;28;20567;-83
2021/11/24 02:08:22;;;;;;;37.35;16.83;;;;;;;-3.91;100.00;93579.22;2105485;28;20485;-84
2021/11/24 02:09:23;;;;;;;45.20;18.50;;;;;;;-3.90;100.00;93578.16;2105512;28;20110;-84
2021/11/24 02:10:25;;;;;;;60.72;17.30;;;;;;;-4.09;100.00;93576.66;2105915;28;20035;-85
2021/11/24 02:11:27;;;;;;;43.50;18.73;;;;;;;-4.19;100.00;93584.81;2105595;28;20082;-86
2021/11/24 02:12:47;;;;;;;34.95;18.50;;;;;;;-4.18;100.00;93581.13;2103615;28;20063;-86
2021/11/24 02:13:48;;;;;;;38.45;17.48;;;;;;;-4.09;100.00;93581.13;2100273;28;20103;-84
2021/11/24 02:14:49;;;;;;;51.92;17.38;;;;;;;-4.13;100.00;93580.97;2095271;28;20898;-87
2021/11/24 02:15:50;;;;;;;30.58;17.27;;;;;;;-4.06;100.00;93576.03;2095381;28;20447;-85
2021/11/24 02:16:53;;;;;;;32.15;15.68;;;;;;;-3.94;100.00;93582.47;2104461;28;20051;-85
2021/11/24 02:17:54;;;;;;;29.10;16.70;;;;;;;-3.74;100.00;93575.75;2105351;28;20012;-87
2021/11/24 02:18:55;;;;;;;25.40;16.17;;;;;;;-3.66;100.00;93573.13;2096229;28;20023;-86
2021/11/24 02:19:56;;;;;;;26.17;16.00;;;;;;;-3.72;100.00;93579.59;2094480;28;20016;-87
2021/11/24 02:20:56;;;;;;;27.98;15.82;;;;;;;-3.92;100.00;93570.59;2105868;28;20019;-87
2021/11/24 02:21:58;;;;;;;29.75;16.02;;;;;;;-3.92;100.00;93572.47;2097307;28;20025;-86
2021/11/24 02:23:00;;;;;;;32.20;15.73;;;;;;;-3.94;100.00;93574.63;2103990;28;20020;-85
2021/11/24 02:24:01;;;;;;;30.50;16.35;;;;;;;-3.96;100.00;93572.31;2114116;28;20559;-86
2021/11/24 02:25:02;;;;;;;30.00;16.85;;;;;;;-4.04;100.00;93567.88;2096889;28;20044;-87
2021/11/24 02:26:03;;;;;;;25.80;16.27;;;;;;;-3.95;100.00;93567.84;2101236;27;20028;-85
2021/11/24 02:27:08;;;;;;;27.58;16.80;;;;;;;-3.96;100.00;93569.69;2117195;28;20080;-85
2021/11/24 02:28:09;;;;;;;38.55;17.45;;;;;;;-4.01;100.00;93564.66;2097916;28;20024;-86
2021/11/24 02:29:10;;;;;;;29.10;16.40;;;;;;;-3.98;100.00;93560.66;2097596;28;20030;-84
2021/11/24 02:30:11;;;;;;;35.15;16.52;;;;;;;-4.03;100.00;93559.00;2095679;28;20148;-84
2021/11/24 02:31:20;;;;;;;25.75;17.20;;;;;;;-3.99;100.00;93557.28;2100774;28;20098;-84
2021/11/24 02:32:24;;;;;;;28.48;16.25;;;;;;;-3.95;100.00;93552.19;2114099;28;20034;-85
2021/11/24 02:33:28;;;;;;;29.67;16.50;;;;;;;-3.90;100.00;93558.03;2104308;28;20036;-85
2021/11/24 02:34:32;;;;;;;34.63;17.23;;;;;;;-3.97;100.00;93555.13;2106221;28;20024;-86
2021/11/24 02:35:35;;;;;;;32.50;17.48;;;;;;;-4.07;100.00;93553.63;2112693;28;20077;-86
2021/11/24 02:36:36;;;;;;;29.77;17.27;;;;;;;-3.96;100.00;93563.72;2109150;28;20020;-86
2021/11/24 02:37:39;;;;;;;28.13;16.88;;;;;;;-3.94;100.00;93551.13;2096138;28;20047;-86
2021/11/24 02:38:40;;;;;;;30.50;16.90;;;;;;;-3.92;100.00;93557.56;2099213;28;20032;-86
2021/11/24 02:39:42;;;;;;;39.67;17.15;;;;;;;-4.01;100.00;93548.22;2097202;28;20024;-82
2021/11/24 02:40:43;;;;;;;38.90;17.00;;;;;;;-4.17;100.00;93553.19;2097280;28;20028;-84
2021/11/24 02:41:44;;;;;;;46.60;16.05;;;;;;;-4.16;100.00;93541.69;2103891;28;20024;-88
2021/11/24 02:42:45;;;;;;;36.25;16.75;;;;;;;-4.09;100.00;93558.38;2105438;28;20461;-87
2021/11/24 02:43:46;;;;;;;32.33;17.63;;;;;;;-4.11;100.00;93549.34;2097318;28;20823;-84
2021/11/24 02:44:47;;;;;;;31.85;17.75;;;;;;;-4.07;100.00;93556.25;2088113;28;20021;-87
2021/11/24 02:45:48;;;;;;;38.08;17.70;;;;;;;-4.08;100.00;93553.94;2104283;28;20028;-85
2021/11/24 02:46:52;;;;;;;39.33;16.80;;;;;;;-4.16;100.00;93552.91;2101437;28;20028;-84
2021/11/24 02:47:53;;;;;;;33.25;17.38;;;;;;;-4.15;100.00;93556.28;2103967;28;20024;-85
2021/11/24 02:48:57;;;;;;;42.60;17.98;;;;;;;-4.06;100.00;93546.56;2097654;28;20441;-84
2021/11/24 02:50:03;;;;;;;35.20;16.30;;;;;;;-4.24;100.00;93558.91;2095730;28;20020;-87
2021/11/24 02:51:05;;;;;;;32.88;17.40;;;;;;;-4.10;100.00;93553.47;2102354;28;20046;-85
2021/11/24 02:52:07;;;;;;;38.20;16.52;;;;;;;-4.09;100.00;93549.78;2096871;28;20462;-85
2021/11/24 02:53:08;;;;;;;35.78;16.02;;;;;;;-4.14;100.00;93552.56;2097320;28;20451;-84
2021/11/24 02:54:11;;;;;;;31.40;15.82;;;;;;;-4.14;100.00;93545.50;2110094;28;20438;-83
2021/11/24 02:55:13;;;;;;;32.65;17.10;;;;;;;-4.02;100.00;93541.50;2105620;28;20458;-84
2021/11/24 02:56:14;;;;;;;27.33;16.25;;;;;;;-3.96;100.00;93542.84;2105883;28;20484;-84
2021/11/24 02:57:15;;;;;;;37.10;17.50;;;;;;;-3.99;100.00;93540.88;2120738;28;20976;-87
2021/11/24 02:58:16;;;;;;;51.22;17.20;;;;;;;-4.12;100.00;93540.00;2112168;28;20106;-87
2021/11/24 02:59:17;;;;;;;27.13;16.40;;;;;;;-3.97;100.00;93541.31;2097462;28;20029;-86
2021/11/24 03:00:24;;;;;;;28.15;17.17;;;;;;;-3.87;100.00;93543.56;2089092;28;20032;-85
2021/11/24 03:01:25;;;;;;;30.80;17.35;;;;;;;-3.90;100.00;93541.59;2090758;28;20020;-84
2021/11/24 03:02:27;;;;;;;27.10;16.13;;;;;;;-3.88;100.00;93537.56;2093116;28;20054;-83
2021/11/24 03:03:28;;;;;;;32.60;17.48;;;;;;;-3.90;100.00;93536.38;2101379;28;20830;-86
2021/11/24 03:04:30;;;;;;;26.30;16.02;;;;;;;-3.87;100.00;93535.72;2105517;28;20020;-88
2021/11/24 03:05:37;;;;;;;34.53;17.00;;;;;;;-3.67;100.00;93526.41;2095483;28;20529;-85
2021/11/24 03:06:40;;;;;;;27.50;16.75;;;;;;;-3.74;100.00;93529.50;2102423;28;20406;-84
2021/11/24 03:07:42;;;;;;;29.40;16.40;;;;;;;-3.80;100.00;93528.94;2105492;28;20461;-86
2021/11/24 03:08:43;;;;;;;29.60;16.83;;;;;;;-3.74;100.00;93537.34;2082852;28;20475;-87
2021/11/24 03:09:45;;;;;;;31.60;17.65;;;;;;;-3.87;100.00;93533.88;2089085;28;20479;-84
2021/11/24 03:10:46;;;;;;;32.40;16.98;;;;;;;-3.90;100.00;93531.16;2101916;28;20047;-86
2021/11/24 03:11:47;;;;;;;28.05;16.35;;;;;;;-3.84;100.00;93535.09;2117498;27;20023;-86
2021/11/24 03:12:48;;;;;;;29.83;16.92;;;;;;;-3.72;100.00;93519.53;2112507;28;20349;-87
2021/11/24 03:13:49;;;;;;;25.48;15.93;;;;;;;-3.63;100.00;93522.09;2098747;28;20027;-84
2021/11/24 03:14:52;;;;;;;26.05;16.45;;;;;;;-3.64;100.00;93523.94;2088905;28;20021;-86
2021/11/24 03:15:53;;;;;;;28.48;16.30;;;;;;;-3.69;100.00;93518.13;2090983;28;20021;-85
2021/11/24 03:16:55;;;;;;;28.70;17.27;;;;;;;-3.82;100.00;93515.44;2098946;28;21121;-86
2021/11/24 03:17:56;;;;;;;25.67;17.13;;;;;;;-3.75;100.00;93512.31;2111066;28;20030;-85
2021/11/24 03:18:57;;;;;;;25.63;16.15;;;;;;;-3.82;100.00;93518.06;2115760;28;20047;-86
2021/11/24 03:19:58;;;;;;;28.63;17.90;;;;;;;-3.62;100.00;93521.78;2101085;28;20015;-84
2021/11/24 03:20:59;;;;;;;27.05;17.08;;;;;;;-3.61;100.00;93515.47;2100257;28;20047;-84
2021/11/24 03:22:00;;;;;;;26.60;16.08;;;;;;;-3.64;100.00;93515.34;2094629;28;20036;-85
2021/11/24 03:23:01;;;;;;;28.95;17.77;;;;;;;-3.65;100.00;93519.03;2105299;28;20472;-84
2021/11/24 03:24:03;;;;;;;24.83;16.90;;;;;;;-3.70;100.00;93517.34;2112684;28;20068;-89
2021/11/24 03:25:06;;;;;;;28.75;16.65;;;;;;;-3.75;100.00;93512.31;2105209;28;20024;-87
2021/11/24 03:26:07;;;;;;;26.10;17.20;;;;;;;-3.79;100.00;93516.66;2097065;28;20107;-88
2021/11/24 03:27:08;;;;;;;29.80;17.52;;;;;;;-3.70;100.00;93519.97;2093300;28;20032;-86
2021/11/24 03:28:09;;;;;;;27.60;17.35;;;;;;;-3.72;100.00;93519.53;2102298;28;20032;-87
2021/11/24 03:29:10;;;;;;;26.13;15.88;;;;;;;-3.63;100.00;93517.63;2108473;28;20641;-86
2021/11/24 03:30:18;;;;;;;28.00;17.05;;;;;;;-3.60;100.00;93503.16;2095307;28;20429;-86
2021/11/24 03:31:19;;;;;;;25.35;16.30;;;;;;;-3.68;100.00;93507.38;2090351;28;20044;-83
2021/11/24 03:32:20;;;;;;;26.05;15.85;;;;;;;-3.65;100.00;93501.50;2097578;28;20888;-85
2021/11/24 03:33:21;;;;;;;24.88;16.85;;;;;;;-3.75;100.00;93504.50;2096470;28;20115;-84
2021/11/24 03:34:22;;;;;;;25.08;16.60;;;;;;;-3.62;100.00;93502.72;2106767;28;20020;-83
2021/11/24 03:35:25;;;;;;;27.25;16.73;;;;;;;-3.56;100.00;93498.84;2105907;28;20031;-85
2021/11/24 03:36:26;;;;;;;27.08;17.38;;;;;;;-3.48;100.00;93503.25;2105218;28;20020;-85
2021/11/24 03:37:27;;;;;;;24.00;15.48;;;;;;;-3.58;100.00;93496.56;2114423;28;20030;-83
2021/11/24 03:38:28;;;;;;;26.20;16.70;;;;;;;-3.60;100.00;93498.72;2111018;28;20020;-88
2021/11/24 03:39:29;;;;;;;28.85;17.55;;;;;;;-3.67;100.00;93493.22;2100434;28;20027;-84
2021/11/24 03:40:33;;;;;;;26.63;16.30;;;;;;;-3.67;100.00;93493.22;2096349;28;20573;-87
2021/11/24 03:41:34;;;;;;;24.92;16.65;;;;;;;-3.62;100.00;93493.03;2102902;28;20105;-83
2021/11/24 03:42:36;;;;;;;25.08;16.90;;;;;;;-3.63;100.00;93491.53;2108487;27;20670;-87
2021/11/24 03:43:37;;;;;;;27.50;16.90;;;;;;;-3.50;100.00;93487.13;2115355;28;20073;-84
2021/11/24 03:44:38;;;;;;;26.48;17.30;;;;;;;-3.62;100.00;93482.59;2098510;28;20063;-86
2021/11/24 03:45:49;;;;;;;25.45;17.10;;;;;;;-3.70;100.00;93482.66;2102436;28;20031;-85
2021/11/24 03:46:50;;;;;;;25.50;16.60;;;;;;;-3.74;100.00;93482.50;2091720;28;20760;-85
2021/11/24 03:47:52;;;;;;;28.63;16.63;;;;;;;-3.70;100.00;93488.63;2096420;28;20048;-85
2021/11/24 03:48:53;;;;;;;25.98;16.67;;;;;;;-3.63;100.00;93482.91;2096383;28;20043;-83
2021/11/24 03:49:54;;;;;;;26.45;16.13;;;;;;;-3.63;100.00;93477.69;2090210;28;20048;-84
2021/11/24 03:50:55;;;;;;;28.75;16.65;;;;;;;-3.65;100.00;93485.06;2097825;28;20024;-85
2021/11/24 03:51:56;;;;;;;29.25;17.13;;;;;;;-3.55;100.00;93482.88;2100641;28;20359;-86
2021/11/24 03:52:57;;;;;;;24.50;16.00;;;;;;;-3.67;100.00;93479.41;2116761;27;20529;-84
2021/11/24 03:53:58;;;;;;;24.27;15.90;;;;;;;-3.69;100.00;93482.31;2115287;28;20026;-83
2021/11/24 03:54:59;;;;;;;23.92;16.98;;;;;;;-3.61;100.00;93476.28;2106643;28;20020;-86
2021/11/24 03:56:00;;;;;;;24.50;16.05;;;;;;;-3.51;100.00;93469.94;2089657;28;20017;-86
2021/11/24 03:57:01;;;;;;;22.45;15.32;;;;;;;-3.42;100.00;93473.25;2097949;28;20054;-85
2021/11/24 03:58:02;;;;;;;22.92;16.05;;;;;;;-3.23;100.00;93475.41;2094848;28;20025;-85
2021/11/24 03:59:03;;;;;;;25.48;16.48;;;;;;;-3.39;100.00;93480.44;2096238;28;20039;-84
2021/11/24 04:00:07;;;;;;;22.42;15.18;;;;;;;-3.59;100.00;93478.59;2096295;28;20465;-86
2021/11/24 04:01:09;;;;;;;23.50;16.80;;;;;;;-3.53;100.00;93476.53;2094142;28;20086;-85
2021/11/24 04:02:10;;;;;;;25.98;16.48;;;;;;;-3.44;100.00;93472.78;2105356;28;20028;-84
2021/11/24 04:03:10;;;;;;;24.63;15.98;;;;;;;-3.47;100.00;93473.41;2107039;28;20781;-85
2021/11/24 04:04:11;;;;;;;24.42;16.30;;;;;;;-3.56;100.00;93478.72;2106787;28;20026;-84
2021/11/24 04:05:13;;;;;;;25.30;16.15;;;;;;;-3.53;100.00;93474.69;2110994;28;20024;-84
2021/11/24 04:06:38;;;;;;;24.60;15.75;;;;;;;-3.63;100.00;93472.47;2099073;28;20020;-86
2021/11/24 04:07:39;;;;;;;23.80;14.90;;;;;;;-3.62;100.00;93472.13;2101708;28;20034;-86
2021/11/24 04:08:46;;;;;;;25.08;16.20;;;;;;;-3.65;100.00;93470.16;2089898;28;20037;-85
2021/11/24 04:09:53;;;;;;;24.40;15.02;;;;;;;-3.62;100.00;93463.53;2099891;28;20409;-85
2021/11/24 04:10:54;;;;;;;25.13;15.82;;;;;;;-3.53;100.00;93463.47;2103451;28;20074;-84
2021/11/24 04:11:55;;;;;;;25.08;16.02;;;;;;;-3.55;100.00;93459.34;2104711;28;20024;-87
2021/11/24 04:12:56;;;;;;;24.95;15.80;;;;;;;-3.55;100.00;93459.34;2094622;28;20023;-84
2021/11/24 04:13:57;;;;;;;23.45;15.93;;;;;;;-3.50;100.00;93463.63;2082094;28;20443;-86
2021/11/24 04:14:58;;;;;;;28.92;19.40;;;;;;;-3.53;100.00;93464.25;2091387;28;20027;-83
2021/11/24 04:15:59;;;;;;;30.08;18.95;;;;;;;-3.48;100.00;93465.91;2098407;28;20032;-86
2021/11/24 04:17:00;;;;;;;37.75;24.00;;;;;;;-3.48;100.00;93463.28;2090399;28;20021;-86
2021/11/24 04:18:01;;;;;;;30.95;21.27;;;;;;;-3.52;100.00;93465.00;2098844;28;20028;-85
2021/11/24 04:19:02;;;;;;;37.10;25.25;;;;;;;-3.58;100.00;93467.81;2095147;28;20079;-84
2021/11/24 04:20:07;;;;;;;39.67;27.30;;;;;;;-3.51;100.00;93466.53;2086089;28;20028;-87
2021/11/24 04:21:09;;;;;;;36.67;25.50;;;;;;;-3.53;100.00;93466.84;2094975;28;20389;-84
2021/11/24 04:22:10;;;;;;;38.60;26.40;;;;;;;-3.64;100.00;93466.47;2101852;28;20111;-84
2021/11/24 04:23:11;;;;;;;46.60;33.20;;;;;;;-3.60;100.00;93466.59;2106779;28;20487;-85
2021/11/24 04:24:12;;;;;;;45.33;32.15;;;;;;;-3.67;100.00;93463.72;2098629;28;20078;-86
2021/11/24 04:25:14;;;;;;;37.10;27.02;;;;;;;-3.55;100.00;93469.81;2086953;28;20468;-84
2021/11/24 04:26:15;;;;;;;32.75;22.35;;;;;;;-3.52;100.00;93467.63;2085875;28;20029;-87
2021/11/24 04:27:16;;;;;;;32.22;21.30;;;;;;;-3.46;100.00;93469.75;2103015;28;20075;-85
2021/11/24 04:28:17;;;;;;;31.23;21.58;;;;;;;-3.63;100.00;93473.22;2110788;28;20034;-83
2021/11/24 04:29:18;;;;;;;27.42;19.48;;;;;;;-3.57;100.00;93469.34;2098262;28;20021;-85
2021/11/24 04:30:20;;;;;;;28.48;19.92;;;;;;;-3.57;100.00;93477.19;2096345;28;20615;-85
2021/11/24 04:31:25;;;;;;;25.58;17.77;;;;;;;-3.55;100.00;93472.41;2102382;28;20021;-85
2021/11/24 04:32:26;;;;;;;28.05;18.17;;;;;;;-3.52;100.00;93468.38;2091177;28;20025;-86
2021/11/24 04:33:27;;;;;;;25.90;16.63;;;;;;;-3.52;100.00;93472.84;2084926;28;20068;-86
2021/11/24 04:34:32;;;;;;;24.13;16.95;;;;;;;-3.51;100.00;93476.97;2095686;28;20028;-85
2021/11/24 04:35:33;;;;;;;22.95;15.95;;;;;;;-3.45;100.00;93473.88;2099129;28;20103;-84
2021/11/24 04:36:34;;;;;;;27.40;17.80;;;;;;;-3.49;100.00;93467.00;2098375;28;20021;-88
2021/11/24 04:37:38;;;;;;;24.77;16.67;;;;;;;-3.53;100.00;93466.09;2098263;28;20480;-88
2021/11/24 04:38:40;;;;;;;25.05;16.73;;;;;;;-3.55;100.00;93466.44;2099229;28;20103;-85
2021/11/24 04:39:42;;;;;;;24.13;15.60;;;;;;;-3.60;100.00;93462.16;2106665;28;20089;-87
2021/11/24 04:40:43;;;;;;;24.17;15.65;;;;;;;-3.49;100.00;93459.91;2098377;28;20025;-85
2021/11/24 04:41:44;;;;;;;25.45;15.38;;;;;;;-3.42;100.00;93462.03;2105756;28;20059;-84
2021/11/24 04:42:45;;;;;;;25.95;16.58;;;;;;;-3.49;100.00;93467.00;2099435;28;20028;-84